Map

Track Data

SID SEASON NUMBER BASIN SUBBASIN NAME ISO_TIME NATURE LAT LON WMO_WIND WMO_PRES WMO_AGENCY TRACK_TYPE DIST2LAND LANDFALL IFLAG USA_AGENCY USA_ATCF_ID USA_LAT USA_LON USA_RECORD USA_STATUS USA_WIND USA_PRES USA_SSHS USA_R34_NE USA_R34_SE USA_R34_SW USA_R34_NW USA_R50_NE USA_R50_SE USA_R50_SW USA_R50_NW USA_R64_NE USA_R64_SE USA_R64_SW USA_R64_NW USA_POCI USA_ROCI USA_RMW USA_EYE TOKYO_LAT TOKYO_LON TOKYO_GRADE TOKYO_WIND TOKYO_PRES TOKYO_R50_DIR TOKYO_R50_LONG TOKYO_R50_SHORT TOKYO_R30_DIR TOKYO_R30_LONG TOKYO_R30_SHORT TOKYO_LAND CMA_LAT CMA_LON CMA_CAT CMA_WIND CMA_PRES HKO_LAT HKO_LON HKO_CAT HKO_WIND HKO_PRES NEWDELHI_LAT NEWDELHI_LON NEWDELHI_GRADE NEWDELHI_WIND NEWDELHI_PRES NEWDELHI_CI NEWDELHI_DP NEWDELHI_POCI REUNION_LAT REUNION_LON REUNION_TYPE REUNION_WIND REUNION_PRES REUNION_TNUM REUNION_CI REUNION_RMW REUNION_R34_NE REUNION_R34_SE REUNION_R34_SW REUNION_R34_NW REUNION_R50_NE REUNION_R50_SE REUNION_R50_SW REUNION_R50_NW REUNION_R64_NE REUNION_R64_SE REUNION_R64_SW REUNION_R64_NW BOM_LAT BOM_LON BOM_TYPE BOM_WIND BOM_PRES BOM_TNUM BOM_CI BOM_RMW BOM_R34_NE BOM_R34_SE BOM_R34_SW BOM_R34_NW BOM_R50_NE BOM_R50_SE BOM_R50_SW BOM_R50_NW BOM_R64_NE BOM_R64_SE BOM_R64_SW BOM_R64_NW BOM_ROCI BOM_POCI BOM_EYE BOM_POS_METHOD BOM_PRES_METHOD NADI_LAT NADI_LON NADI_CAT NADI_WIND NADI_PRES WELLINGTON_LAT WELLINGTON_LON WELLINGTON_WIND WELLINGTON_PRES DS824_LAT DS824_LON DS824_STAGE DS824_WIND DS824_PRES TD9636_LAT TD9636_LON TD9636_STAGE TD9636_WIND TD9636_PRES TD9635_LAT TD9635_LON TD9635_WIND TD9635_PRES TD9635_ROCI NEUMANN_LAT NEUMANN_LON NEUMANN_CLASS NEUMANN_WIND NEUMANN_PRES MLC_LAT MLC_LON MLC_CLASS MLC_WIND MLC_PRES USA_GUST BOM_GUST BOM_GUST_PER REUNION_GUST REUNION_GUST_PER USA_SEAHGT USA_SEARAD_NE USA_SEARAD_SE USA_SEARAD_SW USA_SEARAD_NW STORM_SPEED STORM_DIR
1989238N17339 1989 88 NA NA FELIX 1989-08-26 00:00:00 TS 16.8000 -21.0000 25 1009 hurdat_atl main 442 442 O_____________ hurdat_atl AL081989 16.8000 -21.0000 TD 25 1009 -1 7 278
1989238N17339 1989 88 NA NA FELIX 1989-08-26 03:00:00 TS 16.8527 -21.3749 main 484 484 P_____________ AL081989 16.8527 -21.3749 TD 27 1008 -1 7 278
1989238N17339 1989 88 NA NA FELIX 1989-08-26 06:00:00 TS 16.9000 -21.7000 30 1008 hurdat_atl main 512 512 O_____________ hurdat_atl AL081989 16.9000 -21.7000 TD 30 1008 -1 6 279
1989238N17339 1989 88 NA NA FELIX 1989-08-26 09:00:00 TS 16.9423 -21.9501 main 540 540 P_____________ AL081989 16.9423 -21.9501 TD 30 1007 -1 5 282
1989238N17339 1989 88 NA NA FELIX 1989-08-26 12:00:00 TS 17.0000 -22.2000 30 1007 hurdat_atl main 564 564 O_____________ hurdat_atl AL081989 17.0000 -22.2000 TD 30 1007 -1 6 285
1989238N17339 1989 88 NA NA FELIX 1989-08-26 15:00:00 TS 17.0925 -22.5425 main 598 598 P_____________ AL081989 17.0925 -22.5425 TD 32 1006 -1 7 287
1989238N17339 1989 88 NA NA FELIX 1989-08-26 18:00:00 TS 17.2000 -22.9000 35 1005 hurdat_atl main 641 641 O_____________ hurdat_atl AL081989 17.2000 -22.9000 TS 35 1005 0 7 286
1989238N17339 1989 88 NA NA FELIX 1989-08-26 21:00:00 TS 17.2850 -23.2226 main 675 675 P_____________ AL081989 17.2850 -23.2226 TS 35 1004 0 6 289
1989238N17339 1989 88 NA NA FELIX 1989-08-27 00:00:00 TS 17.4000 -23.5000 35 1003 hurdat_atl main 708 708 O_____________ hurdat_atl AL081989 17.4000 -23.5000 TS 35 1003 0 6 301
1989238N17339 1989 88 NA NA FELIX 1989-08-27 03:00:00 TS 17.5850 -23.7374 main 737 737 P_____________ AL081989 17.5850 -23.7374 TS 37 1002 0 6 316
1989238N17339 1989 88 NA NA FELIX 1989-08-27 06:00:00 TS 17.8000 -23.9000 40 1001 hurdat_atl main 766 766 O_____________ hurdat_atl AL081989 17.8000 -23.9000 TS 40 1001 0 5 333
1989238N17339 1989 88 NA NA FELIX 1989-08-27 09:00:00 TS 17.9924 -23.9577 main 785 779 P_____________ AL081989 17.9924 -23.9577 TS 42 1000 0 4 347
1989238N17339 1989 88 NA NA FELIX 1989-08-27 12:00:00 TS 18.2000 -24.0000 45 1000 hurdat_atl main 779 775 O_____________ hurdat_atl AL081989 18.2000 -24.0000 TS 45 1000 0 5 340
1989238N17339 1989 88 NA NA FELIX 1989-08-27 15:00:00 TS 18.4500 -24.1349 main 776 776 P_____________ AL081989 18.4500 -24.1350 TS 47 999 0 6 330
1989238N17339 1989 88 NA NA FELIX 1989-08-27 18:00:00 TS 18.7000 -24.3000 50 998 hurdat_atl main 789 785 O_____________ hurdat_atl AL081989 18.7000 -24.3000 TS 50 998 0 5 325
1989238N17339 1989 88 NA NA FELIX 1989-08-27 21:00:00 TS 18.8925 -24.4576 main 802 799 P_____________ AL081989 18.8925 -24.4576 TS 50 997 0 5 325
1989238N17339 1989 88 NA NA FELIX 1989-08-28 00:00:00 TS 19.1000 -24.6000 50 996 hurdat_atl main 806 803 O_____________ hurdat_atl AL081989 19.1000 -24.6000 TS 50 996 0 6 335
1989238N17339 1989 88 NA NA FELIX 1989-08-28 03:00:00 TS 19.4075 -24.7150 main 808 806 P_____________ AL081989 19.4075 -24.7150 TS 52 995 0 6 342
1989238N17339 1989 88 NA NA FELIX 1989-08-28 06:00:00 TS 19.7000 -24.8000 55 995 hurdat_atl main 812 810 O_____________ hurdat_atl AL081989 19.7000 -24.8000 TS 55 995 0 5 343
1989238N17339 1989 88 NA NA FELIX 1989-08-28 09:00:00 TS 19.8575 -24.8650 main 819 817 P_____________ AL081989 19.8575 -24.8650 TS 52 995 0 3 343
1989238N17339 1989 88 NA NA FELIX 1989-08-28 12:00:00 TS 20.0000 -24.9000 50 995 hurdat_atl main 817 814 O_____________ hurdat_atl AL081989 20.0000 -24.9000 TS 50 995 0 4 0
1989238N17339 1989 88 NA NA FELIX 1989-08-28 15:00:00 TS 20.2500 -24.8776 main 814 812 P_____________ AL081989 20.2500 -24.8776 TS 50 995 0 5 2
1989238N17339 1989 88 NA NA FELIX 1989-08-28 18:00:00 TS 20.5000 -24.9000 50 995 hurdat_atl main 812 811 O_____________ hurdat_atl AL081989 20.5000 -24.9000 TS 50 995 0 4 339
1989238N17339 1989 88 NA NA FELIX 1989-08-28 21:00:00 TS 20.6649 -25.0475 main 821 821 P_____________ AL081989 20.6649 -25.0475 TS 47 997 0 5 309
1989238N17339 1989 88 NA NA FELIX 1989-08-29 00:00:00 TS 20.8000 -25.3000 45 1000 hurdat_atl main 852 852 O_____________ hurdat_atl AL081989 20.8000 -25.3000 TS 45 1000 0 6 298
1989238N17339 1989 88 NA NA FELIX 1989-08-29 03:00:00 TS 20.9499 -25.6126 main 883 882 P_____________ AL081989 20.9499 -25.6126 TS 40 1000 0 7 295
1989238N17339 1989 88 NA NA FELIX 1989-08-29 06:00:00 TS 21.1000 -26.0000 35 1001 hurdat_atl main 924 924 O_____________ hurdat_atl AL081989 21.1000 -26.0000 TS 35 1001 0 8 290
1989238N17339 1989 88 NA NA FELIX 1989-08-29 09:00:00 TS 21.2350 -26.4352 main 966 966 P_____________ AL081989 21.2350 -26.4352 TS 35 1003 0 9 290
1989238N17339 1989 88 NA NA FELIX 1989-08-29 12:00:00 TS 21.4000 -26.9000 35 1005 hurdat_atl main 1018 1018 O_____________ hurdat_atl AL081989 21.4000 -26.9000 TS 35 1005 0 9 295
1989238N17339 1989 88 NA NA FELIX 1989-08-29 15:00:00 TS 21.6274 -27.3501 main 1071 1071 P_____________ AL081989 21.6274 -27.3501 TS 32 1005 -1 10 301
1989238N17339 1989 88 NA NA FELIX 1989-08-29 18:00:00 TS 21.9000 -27.8000 30 1006 hurdat_atl main 1114 1114 O_____________ hurdat_atl AL081989 21.9000 -27.8000 TD 30 1006 -1 10 303
1989238N17339 1989 88 NA NA FELIX 1989-08-29 21:00:00 TS 22.1698 -28.2429 main 1154 1154 P_____________ AL081989 22.1698 -28.2429 TD 30 1007 -1 10 306
1989238N17339 1989 88 NA NA FELIX 1989-08-30 00:00:00 TS 22.5000 -28.7000 30 1008 hurdat_atl main 1206 1206 O_____________ hurdat_atl AL081989 22.5000 -28.7000 TD 30 1008 -1 12 312
1989238N17339 1989 88 NA NA FELIX 1989-08-30 03:00:00 TS 22.9347 -29.1702 main 1259 1259 P_____________ AL081989 22.9347 -29.1702 TD 30 1008 -1 13 314
1989238N17339 1989 88 NA NA FELIX 1989-08-30 06:00:00 TS 23.4000 -29.7000 30 1009 hurdat_atl main 1314 1314 O_____________ hurdat_atl AL081989 23.4000 -29.7000 TD 30 1009 -1 14 309
1989238N17339 1989 88 NA NA FELIX 1989-08-30 09:00:00 TS 23.7999 -30.3205 main 1380 1380 P_____________ AL081989 23.7999 -30.3205 TD 30 1009 -1 14 304
1989238N17339 1989 88 NA NA FELIX 1989-08-30 12:00:00 TS 24.2000 -31.0000 30 1009 hurdat_atl main 1456 1456 O_____________ hurdat_atl AL081989 24.2000 -31.0000 TD 30 1009 -1 15 303
1989238N17339 1989 88 NA NA FELIX 1989-08-30 15:00:00 TS 24.6196 -31.6784 main 1533 1533 P_____________ AL081989 24.6196 -31.6784 TD 30 1009 -1 16 305
1989238N17339 1989 88 NA NA FELIX 1989-08-30 18:00:00 TS 25.1000 -32.4000 30 1010 hurdat_atl main 1585 1585 O_____________ hurdat_atl AL081989 25.1000 -32.4000 TD 30 1010 -1 17 308
1989238N17339 1989 88 NA NA FELIX 1989-08-30 21:00:00 TS 25.6698 -33.1854 main 1646 1646 P_____________ AL081989 25.6698 -33.1854 TD 30 1010 -1 19 310
1989238N17339 1989 88 NA NA FELIX 1989-08-31 00:00:00 TS 26.3000 -34.0000 30 1010 hurdat_atl main 1710 1710 O_____________ hurdat_atl AL081989 26.3000 -34.0000 TD 30 1010 -1 19 311
1989238N17339 1989 88 NA NA FELIX 1989-08-31 03:00:00 TS 26.9422 -34.8081 main 1776 1776 P_____________ AL081989 26.9422 -34.8081 TD 30 1010 -1 19 312
1989238N17339 1989 88 NA NA FELIX 1989-08-31 06:00:00 TS 27.6000 -35.6000 30 1010 hurdat_atl main 1844 1844 O_____________ hurdat_atl AL081989 27.6000 -35.6000 TD 30 1010 -1 19 314
1989238N17339 1989 88 NA NA FELIX 1989-08-31 09:00:00 TS 28.2869 -36.3577 main 1914 1913 P_____________ AL081989 28.2869 -36.3577 TD 30 1010 -1 19 315
1989238N17339 1989 88 NA NA FELIX 1989-08-31 12:00:00 TS 28.9000 -37.1000 30 1010 hurdat_atl main 1978 1978 O_____________ hurdat_atl AL081989 28.9000 -37.1000 TD 30 1010 -1 17 308
1989238N17339 1989 88 NA NA FELIX 1989-08-31 15:00:00 TS 29.3375 -37.8810 main 2053 2053 P_____________ AL081989 29.3375 -37.8810 TD 30 1010 -1 15 301
1989238N17339 1989 88 NA NA FELIX 1989-08-31 18:00:00 TS 29.7000 -38.6000 30 1010 hurdat_atl main 2120 2120 O_____________ hurdat_atl AL081989 29.7000 -38.6000 TD 30 1010 -1 14 305
1989238N17339 1989 88 NA NA FELIX 1989-08-31 21:00:00 TS 30.1140 -39.1583 main 2177 2134 P_____________ AL081989 30.1140 -39.1583 TD 30 1009 -1 12 310
1989238N17339 1989 88 NA NA FELIX 1989-09-01 00:00:00 TS 30.5000 -39.7000 30 1009 hurdat_atl main 2134 2068 O_____________ hurdat_atl AL081989 30.5000 -39.7000 TD 30 1009 -1 14 301
1989238N17339 1989 88 NA NA FELIX 1989-09-01 03:00:00 TS 30.8086 -40.5043 main 2068 2011 P_____________ AL081989 30.8086 -40.5043 TD 30 1009 -1 13 297
1989238N17339 1989 88 NA NA FELIX 1989-09-01 06:00:00 TS 31.1000 -41.1000 30 1009 hurdat_atl main 2011 1982 O_____________ hurdat_atl AL081989 31.1000 -41.1000 TD 30 1009 -1 8 325
1989238N17339 1989 88 NA NA FELIX 1989-09-01 09:00:00 TS 31.4646 -41.0491 main 1976 1956 P_____________ AL081989 31.4646 -41.0491 TD 30 1009 -1 7 20
1989238N17339 1989 88 NA NA FELIX 1989-09-01 12:00:00 TS 31.8000 -40.8000 30 1009 hurdat_atl main 1956 1937 O_____________ hurdat_atl AL081989 31.8000 -40.8000 TD 30 1009 -1 6 19
1989238N17339 1989 88 NA NA FELIX 1989-09-01 15:00:00 TS 32.0150 -40.8272 main 1937 1913 P_____________ AL081989 32.0150 -40.8272 TD 30 1009 -1 4 348
1989238N17339 1989 88 NA NA FELIX 1989-09-01 18:00:00 TS 32.2000 -40.9000 30 1009 hurdat_atl main 1913 1893 O_____________ hurdat_atl AL081989 32.2000 -40.9000 TD 30 1009 -1 4 351
1989238N17339 1989 88 NA NA FELIX 1989-09-01 21:00:00 TS 32.4575 -40.9076 main 1884 1864 P_____________ AL081989 32.4575 -40.9076 TD 30 1008 -1 5 2
1989238N17339 1989 88 NA NA FELIX 1989-09-02 00:00:00 TS 32.7000 -40.9000 30 1008 hurdat_atl main 1864 1845 O_____________ hurdat_atl AL081989 32.7000 -40.9000 TD 30 1008 -1 4 0
1989238N17339 1989 88 NA NA FELIX 1989-09-02 03:00:00 TS 32.8800 -40.8925 main 1845 1835 P_____________ AL081989 32.8800 -40.8925 TD 30 1008 -1 3 0
1989238N17339 1989 88 NA NA FELIX 1989-09-02 06:00:00 TS 33.0000 -40.9000 30 1008 hurdat_atl main 1835 1826 O_____________ hurdat_atl AL081989 33.0000 -40.9000 TD 30 1008 -1 2 347
1989238N17339 1989 88 NA NA FELIX 1989-09-02 09:00:00 TS 33.0650 -40.9275 main 1826 1821 P_____________ AL081989 33.0650 -40.9275 TD 30 1008 -1 1 323
1989238N17339 1989 88 NA NA FELIX 1989-09-02 12:00:00 TS 33.1000 -41.0000 30 1008 hurdat_atl main 1821 1807 O_____________ hurdat_atl AL081989 33.1000 -41.0000 TD 30 1008 -1 2 300
1989238N17339 1989 88 NA NA FELIX 1989-09-02 15:00:00 TS 33.1575 -41.1200 main 1807 1797 P_____________ AL081989 33.1575 -41.1200 TD 30 1008 -1 3 292
1989238N17339 1989 88 NA NA FELIX 1989-09-02 18:00:00 TS 33.2000 -41.3000 30 1008 hurdat_atl main 1797 1788 O_____________ hurdat_atl AL081989 33.2000 -41.3000 TD 30 1008 -1 3 276
1989238N17339 1989 88 NA NA FELIX 1989-09-02 21:00:00 TS 33.1925 -41.5352 main 1788 1774 P_____________ AL081989 33.1925 -41.5352 TD 32 1006 -1 4 270
1989238N17339 1989 88 NA NA FELIX 1989-09-03 00:00:00 TS 33.2000 -41.8000 35 1005 hurdat_atl main 1774 1755 O_____________ hurdat_atl AL081989 33.2000 -41.8000 TS 35 1005 0 4 283
1989238N17339 1989 88 NA NA FELIX 1989-09-03 03:00:00 TS 33.2924 -42.0424 main 1755 1732 P_____________ AL081989 33.2924 -42.0424 TS 35 1005 0 5 295
1989238N17339 1989 88 NA NA FELIX 1989-09-03 06:00:00 TS 33.4000 -42.3000 35 1005 hurdat_atl main 1732 1723 O_____________ hurdat_atl AL081989 33.4000 -42.3000 TS 35 1005 0 5 289
1989238N17339 1989 88 NA NA FELIX 1989-09-03 09:00:00 TS 33.4422 -42.5629 main 1719 1696 P_____________ AL081989 33.4422 -42.5629 TS 35 1005 0 5 281
1989238N17339 1989 88 NA NA FELIX 1989-09-03 12:00:00 TS 33.5000 -42.9000 35 1005 hurdat_atl main 1696 1669 O_____________ hurdat_atl AL081989 33.5000 -42.9000 TS 35 1005 0 7 287
1989238N17339 1989 88 NA NA FELIX 1989-09-03 15:00:00 TS 33.6423 -43.3473 main 1669 1624 P_____________ AL081989 33.6423 -43.3473 TS 35 1005 0 9 290
1989238N17339 1989 88 NA NA FELIX 1989-09-03 18:00:00 TS 33.8000 -43.9000 35 1005 hurdat_atl main 1624 1591 O_____________ hurdat_atl AL081989 33.8000 -43.9000 TS 35 1005 0 10 285
1989238N17339 1989 88 NA NA FELIX 1989-09-03 21:00:00 TS 33.9002 -44.5428 main 1591 1554 P_____________ AL081989 33.9002 -44.5428 TS 37 1004 0 11 280
1989238N17339 1989 88 NA NA FELIX 1989-09-04 00:00:00 TS 34.0000 -45.2000 40 1004 hurdat_atl main 1554 1526 O_____________ hurdat_atl AL081989 34.0000 -45.2000 TS 40 1004 0 10 282
1989238N17339 1989 88 NA NA FELIX 1989-09-04 03:00:00 TS 34.1194 -45.7581 main 1523 1485 P_____________ AL081989 34.1194 -45.7581 TS 40 1003 0 10 288
1989238N17339 1989 88 NA NA FELIX 1989-09-04 06:00:00 TS 34.3000 -46.3000 40 1003 hurdat_atl main 1485 1435 O_____________ hurdat_atl AL081989 34.3000 -46.3000 TS 40 1003 0 11 296
1989238N17339 1989 88 NA NA FELIX 1989-09-04 09:00:00 TS 34.5929 -46.9367 main 1435 1386 P_____________ AL081989 34.5929 -46.9367 TS 42 1002 0 12 301
1989238N17339 1989 88 NA NA FELIX 1989-09-04 12:00:00 TS 34.9000 -47.5000 45 1002 hurdat_atl main 1386 1356 O_____________ hurdat_atl AL081989 34.9000 -47.5000 TS 45 1002 0 9 305
1989238N17339 1989 88 NA NA FELIX 1989-09-04 15:00:00 TS 35.1144 -47.8383 main 1356 1327 P_____________ AL081989 35.1144 -47.8383 TS 45 1001 0 6 309
1989238N17339 1989 88 NA NA FELIX 1989-09-04 18:00:00 TS 35.3000 -48.1000 45 1000 hurdat_atl main 1327 1295 O_____________ hurdat_atl AL081989 35.3000 -48.1000 TS 45 1000 0 7 306
1989238N17339 1989 88 NA NA FELIX 1989-09-04 21:00:00 TS 35.5078 -48.5021 main 1295 1266 P_____________ AL081989 35.5078 -48.5021 TS 50 997 0 7 305
1989238N17339 1989 88 NA NA FELIX 1989-09-05 00:00:00 TS 35.7000 -48.8000 55 995 hurdat_atl main 1266 1255 O_____________ hurdat_atl AL081989 35.7000 -48.8000 TS 55 995 0 4 324
1989238N17339 1989 88 NA NA FELIX 1989-09-05 03:00:00 TS 35.8574 -48.8104 main 1245 1236 P_____________ AL081989 35.8574 -48.8104 TS 60 991 0 3 14
1989238N17339 1989 88 NA NA FELIX 1989-09-05 06:00:00 TS 36.0000 -48.7000 65 988 hurdat_atl main 1236 1226 O_____________ hurdat_atl AL081989 36.0000 -48.7000 HU 65 988 1 3 23
1989238N17339 1989 88 NA NA FELIX 1989-09-05 09:00:00 TS 36.1425 -48.6649 main 1226 1207 P_____________ AL081989 36.1425 -48.6649 HU 67 985 1 3 14
1989238N17339 1989 88 NA NA FELIX 1989-09-05 12:00:00 TS 36.3000 -48.6000 70 982 hurdat_atl main 1207 1188 O_____________ hurdat_atl AL081989 36.3000 -48.6000 HU 70 982 1 4 25
1989238N17339 1989 88 NA NA FELIX 1989-09-05 15:00:00 TS 36.5076 -48.4502 main 1188 1173 P_____________ AL081989 36.5076 -48.4502 HU 72 980 1 5 31
1989238N17339 1989 88 NA NA FELIX 1989-09-05 18:00:00 TS 36.7000 -48.3000 75 979 hurdat_atl main 1173 1162 O_____________ hurdat_atl AL081989 36.7000 -48.3000 HU 75 979 1 3 30
1989238N17339 1989 88 NA NA FELIX 1989-09-05 21:00:00 TS 36.8075 -48.2348 main 1165 1154 P_____________ AL081989 36.8075 -48.2348 HU 75 979 1 2 23
1989238N17339 1989 88 NA NA FELIX 1989-09-06 00:00:00 TS 36.9000 -48.2000 75 979 hurdat_atl main 1154 1144 O_____________ hurdat_atl AL081989 36.9000 -48.2000 HU 75 979 1 3 17
1989238N17339 1989 88 NA NA FELIX 1989-09-06 03:00:00 TS 37.0500 -48.1500 main 1133 1126 P_____________ AL081989 37.0500 -48.1500 HU 75 979 1 3 14
1989238N17339 1989 88 NA NA FELIX 1989-09-06 06:00:00 TS 37.2000 -48.1000 75 979 hurdat_atl main 1126 1115 O_____________ hurdat_atl AL081989 37.2000 -48.1000 HU 75 979 1 3 16
1989238N17339 1989 88 NA NA FELIX 1989-09-06 09:00:00 TS 37.3075 -48.0500 main 1119 1108 P_____________ AL081989 37.3075 -48.0500 HU 72 980 1 2 23
1989238N17339 1989 88 NA NA FELIX 1989-09-06 12:00:00 TS 37.4000 -48.0000 70 982 hurdat_atl main 1108 1098 O_____________ hurdat_atl AL081989 37.4000 -48.0000 HU 70 982 1 2 24
1989238N17339 1989 88 NA NA FELIX 1989-09-06 15:00:00 TS 37.4850 -47.9500 main 1101 1091 P_____________ AL081989 37.4850 -47.9500 HU 70 983 1 2 23
1989238N17339 1989 88 NA NA FELIX 1989-09-06 18:00:00 TS 37.6000 -47.9000 70 984 hurdat_atl main 1091 1070 O_____________ hurdat_atl AL081989 37.6000 -47.9000 HU 70 984 1 3 16
1989238N17339 1989 88 NA NA FELIX 1989-09-06 21:00:00 TS 37.7775 -47.8500 main 1073 1053 P_____________ AL081989 37.7775 -47.8500 HU 67 986 1 4 11
1989238N17339 1989 88 NA NA FELIX 1989-09-07 00:00:00 TS 38.0000 -47.8000 65 988 hurdat_atl main 1053 1032 O_____________ hurdat_atl AL081989 38.0000 -47.8000 HU 65 988 1 5 10
1989238N17339 1989 88 NA NA FELIX 1989-09-07 03:00:00 TS 38.2200 -47.7499 main 1036 1005 P_____________ AL081989 38.2200 -47.7499 HU 62 989 0 5 9
1989238N17339 1989 88 NA NA FELIX 1989-09-07 06:00:00 TS 38.5000 -47.7000 60 990 hurdat_atl main 1005 975 O_____________ hurdat_atl AL081989 38.5000 -47.7000 TS 60 990 0 6 4
1989238N17339 1989 88 NA NA FELIX 1989-09-07 09:00:00 TS 38.8549 -47.6866 main 965 929 P_____________ AL081989 38.8549 -47.6866 TS 57 991 0 8 6
1989238N17339 1989 88 NA NA FELIX 1989-09-07 12:00:00 TS 39.3000 -47.6000 55 992 hurdat_atl main 929 888 O_____________ hurdat_atl AL081989 39.3000 -47.6000 TS 55 992 0 10 16
1989238N17339 1989 88 NA NA FELIX 1989-09-07 15:00:00 TS 39.8428 -47.3162 main 893 849 P_____________ AL081989 39.8428 -47.3162 TS 52 993 0 12 23
1989238N17339 1989 88 NA NA FELIX 1989-09-07 18:00:00 TS 40.4000 -47.0000 50 994 hurdat_atl main 849 818 O_____________ hurdat_atl AL081989 40.4000 -47.0000 TS 50 994 0 11 19
1989238N17339 1989 88 NA NA FELIX 1989-09-07 21:00:00 TS 40.8496 -46.8705 main 818 784 P_____________ AL081989 40.8496 -46.8705 TS 50 994 0 9 14
1989238N17339 1989 88 NA NA FELIX 1989-09-08 00:00:00 TS 41.3000 -46.7000 50 995 hurdat_atl main 784 758 O_____________ hurdat_atl AL081989 41.3000 -46.7000 TS 50 995 0 11 24
1989238N17339 1989 88 NA NA FELIX 1989-09-08 03:00:00 TS 41.8277 -46.3026 main 764 747 P_____________ AL081989 41.8277 -46.3026 TS 47 996 0 13 31
1989238N17339 1989 88 NA NA FELIX 1989-09-08 06:00:00 TS 42.4000 -45.8000 45 998 hurdat_atl main 747 730 O_____________ hurdat_atl AL081989 42.4000 -45.8000 TS 45 998 0 13 31
1989238N17339 1989 88 NA NA FELIX 1989-09-08 09:00:00 TS 42.9761 -45.3790 main 730 724 P_____________ AL081989 42.9761 -45.3790 TS 45 999 0 14 31
1989238N17339 1989 88 NA NA FELIX 1989-09-08 12:00:00 TS 43.6000 -44.8000 45 1000 hurdat_atl main 731 731 O_____________ hurdat_atl AL081989 43.6000 -44.8000 TS 45 1000 0 17 40
1989238N17339 1989 88 NA NA FELIX 1989-09-08 15:00:00 TS 44.2777 -43.8968 main 757 757 P_____________ AL081989 44.2777 -43.8968 TS 42 1001 0 20 46
1989238N17339 1989 88 NA NA FELIX 1989-09-08 18:00:00 TS 45.0000 -42.8000 40 1002 hurdat_atl main 799 799 O_____________ hurdat_atl AL081989 45.0000 -42.8000 TS 40 1002 0 22 45
1989238N17339 1989 88 NA NA FELIX 1989-09-08 21:00:00 TS 45.8539 -41.6926 main 845 845 P_____________ AL081989 45.8539 -41.6926 TS 37 1003 0 22 47
1989238N17339 1989 88 NA NA FELIX 1989-09-09 00:00:00 TS 46.5000 -40.5000 35 1005 hurdat_atl main 919 919 O_____________ hurdat_atl AL081989 46.5000 -40.5000 TS 35 1005 0 18 66
1989238N17339 1989 88 NA NA FELIX 1989-09-09 03:00:00 TS 46.6115 -39.2578 main 1007 1007 P_____________ AL081989 46.6115 -39.2578 TS 37 1003 0 17 90
1989238N17339 1989 88 NA NA FELIX 1989-09-09 06:00:00 ET 46.5000 -38.0000 40 1002 hurdat_atl main 1106 1106 O_____________ hurdat_atl AL081989 46.5000 -38.0000 EX 40 1002 -4 17 91
1989238N17339 1989 88 NA NA FELIX 1989-09-09 09:00:00 ET 46.5747 -36.7170 main 1201 1201 P_____________ AL081989 46.5747 -36.7170 EX 40 1001 -4 17 90
1989238N17339 1989 88 NA NA FELIX 1989-09-09 12:00:00 ET 46.5000 -35.5000 40 1000 hurdat_atl main 1293 1293 O_____________ hurdat_atl AL081989 46.5000 -35.5000 EX 40 1000 -4 16 108
1989238N17339 1989 88 NA NA FELIX 1989-09-09 15:00:00 ET 46.0730 -34.4605 main 1377 1377 P_____________ AL081989 46.0730 -34.4605 EX 42 998 -4 17 126
1989238N17339 1989 88 NA NA FELIX 1989-09-09 18:00:00 ET 45.5000 -33.5000 45 997 hurdat_atl main 1468 1468 O_____________ hurdat_atl AL081989 45.5000 -33.5000 EX 45 997 -4 18 127
1989238N17339 1989 88 NA NA FELIX 1989-09-09 21:00:00 ET 45.0004 -32.4479 main 1566 1566 P_____________ AL081989 45.0004 -32.4479 EX 47 996 -4 17 125
1989238N17339 1989 88 NA NA FELIX 1989-09-10 00:00:00 ET 44.5000 -31.5000 50 995 hurdat_atl main 1651 1651 O_____________ hurdat_atl AL081989 44.5000 -31.5000 EX 50 995 -4 15 130
1989238N17339 1989 88 NA NA FELIX 1989-09-10 03:00:00 ET 43.9987 -30.7923 main 1722 1683 P_____________ AL081989 43.9987 -30.7923 EX 50 995 -4 14 137
1989238N17339 1989 88 NA NA FELIX 1989-09-10 06:00:00 ET 43.5000 -30.2000 50 995 hurdat_atl main 1683 1640 O_____________ hurdat_atl AL081989 43.5000 -30.2000 EX 50 995 -4 13 139
1989238N17339 1989 88 NA NA FELIX 1989-09-10 09:00:00 ET 43.0011 -29.6050 main 1640 1600 P_____________ AL081989 43.0011 -29.6050 EX 50 995 -4 13 139
1989238N17339 1989 88 NA NA FELIX 1989-09-10 12:00:00 ET 42.5000 -29.0000 50 995 hurdat_atl main 1600 O_____________ hurdat_atl AL081989 42.5000 -29.0000 EX 50 995 -4 13 138

About IBTrACS Database

This database is a web-friendly format of International Best Track Archive for Climate Stewardship (IBTrACS), a global best track data archive curated by NOAA dating back to 1842.

Updated: 2021-10-21